Time;durP1;ratioP1;P1;durP2;ratioP2;P2;SDS_P1;SDS_P2;PMS_P1;PMS_P2;Temp;Humidity;BMP_temperature;BMP_pressure;BME280_temperature;BME280_humidity;BME280_pressure;Samples;Min_cycle;Max_cycle;Signal;HPM_P1;HPM_P2
2022/04/17 00:02:11;;;;;;;5.55;2.50;;;10.10;91.60;;;;;;5092085;28;20072;-37
2022/04/17 00:04:37;;;;;;;3.63;2.15;;;10.00;91.70;;;;;;5095888;28;20028;-37
2022/04/17 00:07:02;;;;;;;4.00;2.47;;;10.00;91.70;;;;;;5094299;28;20038;-37
2022/04/17 00:09:28;;;;;;;2.28;1.83;;;10.00;91.70;;;;;;5095586;28;20034;-38
2022/04/17 00:11:54;;;;;;;4.72;2.30;;;9.90;91.60;;;;;;5092403;28;20083;-48
2022/04/17 00:14:20;;;;;;;3.17;2.22;;;9.90;92.00;;;;;;5093926;28;20490;-38
2022/04/17 00:16:45;;;;;;;3.00;2.30;;;9.90;91.80;;;;;;5091036;28;20028;-36
2022/04/17 00:19:11;;;;;;;5.03;2.22;;;9.80;91.90;;;;;;5093293;28;20031;-39
2022/04/17 00:21:36;;;;;;;4.25;2.13;;;9.80;92.00;;;;;;5094203;28;20073;-37
2022/04/17 00:24:02;;;;;;;2.50;2.28;;;9.80;92.00;;;;;;5095104;28;20106;-37
2022/04/17 00:26:28;;;;;;;4.30;2.40;;;9.80;92.00;;;;;;5092661;28;20031;-38
2022/04/17 00:28:53;;;;;;;4.60;2.40;;;9.80;92.00;;;;;;5091981;28;20067;-37
2022/04/17 00:31:19;;;;;;;6.25;2.00;;;9.80;92.20;;;;;;5091504;28;20103;-36
2022/04/17 00:33:44;;;;;;;6.07;2.00;;;9.80;92.10;;;;;;5092305;28;20027;-35
2022/04/17 00:36:10;;;;;;;4.40;2.33;;;9.70;92.10;;;;;;5093804;28;20433;-36
2022/04/17 00:38:38;;;;;;;5.55;2.22;;;9.70;92.10;;;;;;5093608;28;20111;-37
2022/04/17 00:41:04;;;;;;;3.67;2.00;;;9.70;92.10;;;;;;5092277;28;20504;-37
2022/04/17 00:43:32;;;;;;;4.97;2.30;;;9.60;92.40;;;;;;5093529;28;20164;-37
2022/04/17 00:45:57;;;;;;;8.35;2.55;;;9.60;92.40;;;;;;5095331;28;20080;-37
2022/04/17 00:48:24;;;;;;;3.20;2.28;;;9.50;92.50;;;;;;5094248;28;20107;-37
2022/04/17 00:50:51;;;;;;;6.85;2.25;;;9.50;92.40;;;;;;5093474;28;20173;-38
2022/04/17 00:53:23;;;;;;;4.85;2.30;;;9.50;92.50;;;;;;5094819;28;20024;-38
2022/04/17 00:55:50;;;;;;;4.18;3.47;;;9.50;92.50;;;;;;5109523;28;20066;-38
2022/04/17 00:58:16;;;;;;;6.68;3.08;;;9.50;92.50;;;;;;5115608;28;20050;-41
2022/04/17 01:00:42;;;;;;;4.00;2.58;;;9.50;92.60;;;;;;5115296;28;20099;-39
2022/04/17 01:03:12;;;;;;;5.57;2.70;;;9.40;92.70;;;;;;5099507;28;20460;-36
2022/04/17 01:05:42;;;;;;;3.00;2.38;;;9.40;92.60;;;;;;5092832;28;20061;-38
2022/04/17 01:08:09;;;;;;;3.85;2.83;;;9.40;93.10;;;;;;5092660;28;20460;-37
2022/04/17 01:10:35;;;;;;;4.45;2.75;;;9.40;92.70;;;;;;5093962;28;20094;-37
2022/04/17 01:13:03;;;;;;;4.10;2.80;;;9.40;92.80;;;;;;5094496;28;20544;-37
2022/04/17 01:15:29;;;;;;;3.28;2.40;;;9.30;92.80;;;;;;5092704;28;20040;-38
2022/04/17 01:17:55;;;;;;;5.57;3.47;;;9.30;93.00;;;;;;5092696;28;20036;-36
2022/04/17 01:20:22;;;;;;;4.28;2.90;;;9.30;92.90;;;;;;5094421;28;20032;-38
2022/04/17 01:22:49;;;;;;;4.88;2.92;;;9.30;92.80;;;;;;5092983;28;20028;-37
2022/04/17 01:28:01;;;;;;;5.68;2.42;;;9.30;92.90;;;;;;5094190;28;20071;-44
2022/04/17 01:30:27;;;;;;;4.25;3.03;;;9.30;92.90;;;;;;5094172;28;20117;-37
2022/04/17 01:32:53;;;;;;;6.32;2.78;;;9.30;92.80;;;;;;5094201;28;20035;-37
2022/04/17 01:35:19;;;;;;;5.97;2.90;;;9.30;93.00;;;;;;5093863;28;20031;-37
2022/04/17 01:37:49;;;;;;;8.38;3.15;;;9.20;93.20;;;;;;5093866;28;20498;-36
2022/04/17 01:40:14;;;;;;;5.50;3.00;;;9.20;93.00;;;;;;5093963;28;20030;-38
2022/04/17 01:42:40;;;;;;;4.32;2.78;;;9.20;93.00;;;;;;5093537;28;20115;-36
2022/04/17 01:45:06;;;;;;;6.93;3.25;;;9.20;93.00;;;;;;5093100;28;20057;-37
2022/04/17 01:47:32;;;;;;;4.93;3.17;;;9.20;92.90;;;;;;5091031;28;20016;-37
2022/04/17 01:49:58;;;;;;;6.30;3.03;;;9.10;93.00;;;;;;5092663;28;20035;-38
2022/04/17 01:52:24;;;;;;;4.60;3.28;;;9.10;92.90;;;;;;5092410;28;20035;-41
2022/04/17 01:54:49;;;;;;;12.13;3.00;;;9.10;92.80;;;;;;5092149;28;20028;-37
2022/04/17 01:57:15;;;;;;;6.55;3.38;;;9.10;92.80;;;;;;5090306;28;20097;-36
2022/04/17 01:59:40;;;;;;;4.72;3.05;;;9.00;93.00;;;;;;5093227;28;20016;-37
2022/04/17 02:02:06;;;;;;;7.40;3.25;;;9.10;92.90;;;;;;5091187;28;20036;-37
2022/04/17 02:04:35;;;;;;;13.85;3.28;;;9.00;92.80;;;;;;5091748;28;20078;-37
2022/04/17 02:07:04;;;;;;;7.95;3.83;;;9.00;92.90;;;;;;5092113;28;20448;-36
2022/04/17 02:09:30;;;;;;;6.28;3.20;;;9.00;93.10;;;;;;5092806;28;20032;-35
2022/04/17 02:11:56;;;;;;;6.50;3.28;;;8.90;93.00;;;;;;5093057;28;20020;-36
2022/04/17 02:14:22;;;;;;;4.03;3.13;;;8.90;93.30;;;;;;5083937;28;20038;-36
2022/04/17 02:16:47;;;;;;;7.78;3.33;;;8.90;93.00;;;;;;5083459;28;20493;-36
2022/04/17 02:19:13;;;;;;;4.15;3.08;;;8.90;93.00;;;;;;5090251;28;20032;-36
2022/04/17 02:21:39;;;;;;;7.43;3.20;;;8.90;93.00;;;;;;5091607;28;20036;-37
2022/04/17 02:24:05;;;;;;;9.20;3.15;;;8.90;92.90;;;;;;5089751;28;20028;-38
2022/04/17 02:26:31;;;;;;;5.32;3.40;;;8.90;92.90;;;;;;5090985;28;20032;-36
2022/04/17 02:28:58;;;;;;;7.40;4.03;;;8.90;92.80;;;;;;5091206;28;20091;-35
2022/04/17 02:31:24;;;;;;;6.32;3.25;;;8.90;92.80;;;;;;5092384;28;20042;-36
2022/04/17 02:33:51;;;;;;;6.75;4.18;;;9.00;92.90;;;;;;5091724;28;20043;-46
2022/04/17 02:36:17;;;;;;;6.47;3.88;;;8.90;92.90;;;;;;5075319;28;20141;-37
2022/04/17 02:38:43;;;;;;;4.20;3.50;;;8.90;92.80;;;;;;5090239;28;20036;-36
2022/04/17 02:41:09;;;;;;;4.53;3.15;;;8.90;93.00;;;;;;5092033;28;20024;-38
2022/04/17 02:43:34;;;;;;;6.15;3.30;;;8.80;92.80;;;;;;5091563;28;20035;-37
2022/04/17 02:46:00;;;;;;;8.32;3.90;;;8.80;92.80;;;;;;5090267;28;20024;-37
2022/04/17 02:48:26;;;;;;;10.32;4.10;;;8.80;92.80;;;;;;5091237;28;20020;-38
2022/04/17 02:50:52;;;;;;;6.97;3.33;;;8.80;92.70;;;;;;5089914;28;20137;-37
2022/04/17 02:53:18;;;;;;;7.55;3.67;;;8.80;92.80;;;;;;5092289;28;20088;-37
2022/04/17 02:55:44;;;;;;;5.78;3.83;;;8.80;92.80;;;;;;5090469;28;20403;-37
2022/04/17 02:58:10;;;;;;;8.00;3.70;;;8.80;92.70;;;;;;5088318;28;20173;-36
2022/04/17 03:05:36;;;;;;;8.07;4.00;;;8.80;92.60;;;;;;5090713;28;20091;-36
2022/04/17 03:06:10;;;;;;;6.50;3.85;;;8.90;92.50;;;;;;5092877;28;20057;-36
2022/04/17 03:08:38;;;;;;;9.32;4.38;;;9.00;92.20;;;;;;5086033;28;20472;-37
2022/04/17 03:11:04;;;;;;;7.25;3.45;;;9.00;92.40;;;;;;5096313;28;20484;-37
2022/04/17 03:13:29;;;;;;;6.93;3.38;;;8.90;92.20;;;;;;5110490;28;20031;-37
2022/04/17 03:15:55;;;;;;;6.00;3.85;;;8.90;92.30;;;;;;5093145;28;20040;-37
2022/04/17 03:18:20;;;;;;;6.00;3.80;;;8.90;92.40;;;;;;5095222;28;20051;-37
2022/04/17 03:20:47;;;;;;;15.20;4.32;;;8.80;92.50;;;;;;5095972;28;20031;-37
2022/04/17 03:23:13;;;;;;;6.50;4.35;;;8.80;92.40;;;;;;5095961;28;20384;-36
2022/04/17 03:25:39;;;;;;;8.20;4.45;;;8.80;92.30;;;;;;5095112;28;20468;-38
2022/04/17 03:28:08;;;;;;;5.35;4.20;;;8.80;92.40;;;;;;5092084;28;20027;-33
2022/04/17 03:30:34;;;;;;;9.38;4.55;;;8.70;92.40;;;;;;5089834;28;20045;-35
2022/04/17 03:33:01;;;;;;;8.73;4.30;;;8.70;92.50;;;;;;5092211;28;20495;-36
2022/04/17 03:35:26;;;;;;;5.03;3.97;;;8.70;92.50;;;;;;5091101;28;20036;-48
2022/04/17 03:37:53;;;;;;;8.90;4.20;;;8.70;92.60;;;;;;5095184;28;20381;-37
2022/04/17 03:40:19;;;;;;;9.00;4.53;;;8.60;92.60;;;;;;5096027;28;20027;-36
2022/04/17 03:42:45;;;;;;;6.65;4.13;;;8.60;92.70;;;;;;5095445;28;20032;-35
2022/04/17 03:45:14;;;;;;;9.38;5.07;;;8.60;92.60;;;;;;5095180;28;20091;-36
2022/04/17 03:47:40;;;;;;;10.15;4.13;;;8.60;92.70;;;;;;5095612;28;20024;-37
2022/04/17 03:50:07;;;;;;;13.18;5.13;;;8.50;92.60;;;;;;5094511;28;20383;-35
2022/04/17 03:52:44;;;;;;;6.50;4.20;;;8.50;92.70;;;;;;5093609;28;20016;-36
2022/04/17 03:55:10;;;;;;;7.30;4.33;;;8.50;92.70;;;;;;5095125;28;20024;-36
2022/04/17 03:57:36;;;;;;;6.35;4.07;;;8.50;92.60;;;;;;5091804;28;20495;-35
2022/04/17 04:00:05;;;;;;;7.25;3.95;;;8.50;92.80;;;;;;5095526;28;20103;-36
2022/04/17 04:02:31;;;;;;;10.23;3.83;;;8.40;92.80;;;;;;5093226;28;20073;-37
2022/04/17 04:04:57;;;;;;;9.95;4.47;;;8.40;92.80;;;;;;5094837;28;20369;-37
2022/04/17 04:07:23;;;;;;;8.80;3.72;;;8.40;92.70;;;;;;5079245;28;20171;-36
2022/04/17 04:09:49;;;;;;;9.27;3.75;;;8.40;92.80;;;;;;5095113;28;20063;-37
2022/04/17 04:12:15;;;;;;;7.00;3.88;;;8.40;92.70;;;;;;5093317;28;20048;-37
2022/04/17 04:14:40;;;;;;;6.82;4.05;;;8.30;92.80;;;;;;5094878;28;20078;-36
2022/04/17 04:17:06;;;;;;;6.63;3.85;;;8.40;92.80;;;;;;5090201;28;20059;-37
2022/04/17 04:19:31;;;;;;;6.63;4.25;;;8.30;92.90;;;;;;5089455;28;20024;-36
2022/04/17 04:21:57;;;;;;;9.60;5.25;;;8.30;93.00;;;;;;5093722;28;20074;-35
2022/04/17 04:24:24;;;;;;;8.52;3.95;;;8.30;93.00;;;;;;5094387;28;20028;-38
2022/04/17 04:29:52;;;;;;;6.40;4.00;;;8.20;93.10;;;;;;5019557;28;20049;-35
2022/04/17 04:32:20;;;;;;;7.10;4.07;;;8.20;93.10;;;;;;5075839;28;20044;-36
2022/04/17 04:34:46;;;;;;;6.85;4.20;;;8.20;93.20;;;;;;5093573;28;20395;-37
2022/04/17 04:37:11;;;;;;;9.05;4.43;;;8.10;93.10;;;;;;5093571;28;20024;-39
2022/04/17 04:39:38;;;;;;;8.55;3.85;;;8.10;93.30;;;;;;5077591;28;20277;-36
2022/04/17 04:42:04;;;;;;;7.35;4.47;;;8.10;93.40;;;;;;5094791;28;20024;-37
2022/04/17 04:44:29;;;;;;;9.50;4.60;;;8.10;93.40;;;;;;5084212;28;20033;-39
2022/04/17 04:46:55;;;;;;;12.30;4.10;;;8.10;93.40;;;;;;5093305;28;20048;-35
2022/04/17 04:49:30;;;;;;;9.63;3.92;;;8.10;93.40;;;;;;5093107;28;20028;-38
2022/04/17 04:52:03;;;;;;;10.18;4.80;;;8.10;93.40;;;;;;5093067;28;20032;-37
2022/04/17 04:54:32;;;;;;;10.40;4.03;;;8.00;93.60;;;;;;5081561;28;20060;-37
2022/04/17 04:56:59;;;;;;;9.68;4.10;;;8.00;93.70;;;;;;5094317;28;20024;-36
2022/04/17 04:59:25;;;;;;;15.18;3.78;;;8.00;93.60;;;;;;5092825;28;20438;-37
2022/04/17 05:01:51;;;;;;;8.00;4.35;;;8.00;93.70;;;;;;5093404;28;20028;-38
2022/04/17 05:04:18;;;;;;;7.07;4.07;;;8.00;93.70;;;;;;5085151;28;20029;-37
2022/04/17 05:06:45;;;;;;;7.68;5.05;;;8.00;93.70;;;;;;5085912;28;20140;-36
2022/04/17 05:09:11;;;;;;;8.45;4.47;;;8.00;93.70;;;;;;5092565;28;20029;-37
2022/04/17 05:11:37;;;;;;;9.15;4.03;;;8.00;93.80;;;;;;5093778;28;20586;-37
2022/04/17 05:14:04;;;;;;;6.38;4.07;;;8.00;93.80;;;;;;5094038;28;20387;-37
2022/04/17 05:16:29;;;;;;;9.32;4.43;;;8.10;93.80;;;;;;5091906;28;20047;-38
2022/04/17 05:19:19;;;;;;;7.57;4.45;;;8.10;93.70;;;;;;5093629;28;20043;-37
2022/04/17 05:21:40;;;;;;;9.27;4.30;;;8.20;93.80;;;;;;5094396;28;20028;-37
2022/04/17 05:24:06;;;;;;;8.63;4.63;;;8.20;93.70;;;;;;5091169;28;20043;-39
2022/04/17 05:26:32;;;;;;;8.98;4.25;;;8.20;93.60;;;;;;5093207;28;20020;-37
2022/04/17 05:28:57;;;;;;;9.18;4.60;;;8.20;94.00;;;;;;5091999;28;20035;-37
2022/04/17 05:31:23;;;;;;;5.45;3.70;;;8.20;93.80;;;;;;5091074;28;20038;-44
2022/04/17 05:33:48;;;;;;;6.57;3.70;;;8.20;93.70;;;;;;5091764;28;20020;-35
2022/04/17 05:36:14;;;;;;;7.78;3.85;;;8.30;93.80;;;;;;5093407;28;20034;-37
2022/04/17 05:38:39;;;;;;;5.63;3.38;;;8.40;93.70;;;;;;5093651;28;20488;-36
2022/04/17 05:41:10;;;;;;;7.63;4.10;;;8.40;93.60;;;;;;5086492;28;20488;-35
2022/04/17 05:43:38;;;;;;;5.95;3.53;;;8.50;93.50;;;;;;5093249;28;20032;-36
2022/04/17 05:46:04;;;;;;;;;;;8.50;93.50;;;;;;5093347;28;20020;-37
2022/04/17 05:48:29;;;;;;;8.00;3.80;;;8.60;93.50;;;;;;5091883;28;19912;-32
2022/04/17 05:50:55;;;;;;;5.38;3.45;;;8.70;93.60;;;;;;5092766;28;20016;-37
2022/04/17 05:53:21;;;;;;;7.47;3.60;;;8.70;93.90;;;;;;5093012;28;20020;-38
2022/04/17 05:55:47;;;;;;;9.50;3.85;;;8.80;93.70;;;;;;5093509;28;20064;-37
2022/04/17 05:58:12;;;;;;;9.70;3.75;;;8.90;94.10;;;;;;5093531;28;20114;-37
2022/04/17 06:00:42;;;;;;;5.45;4.03;;;8.90;93.80;;;;;;5093185;28;20024;-38
2022/04/17 06:03:07;;;;;;;5.22;3.70;;;9.00;93.60;;;;;;5092217;28;20476;-41
2022/04/17 06:05:33;;;;;;;5.78;3.88;;;9.10;93.20;;;;;;5093100;28;20027;-37
2022/04/17 06:07:59;;;;;;;7.07;3.53;;;9.20;93.30;;;;;;5087906;28;20183;-37
2022/04/17 06:10:24;;;;;;;5.97;4.05;;;9.20;93.50;;;;;;5073489;28;20020;-36
2022/04/17 06:12:50;;;;;;;6.47;4.45;;;9.20;93.50;;;;;;5090331;28;20028;-37
2022/04/17 06:15:15;;;;;;;8.63;4.35;;;9.30;93.20;;;;;;5088462;28;20023;-39
2022/04/17 06:17:42;;;;;;;5.60;3.60;;;9.30;93.40;;;;;;5090566;28;20031;-45
2022/04/17 06:20:11;;;;;;;4.32;3.70;;;9.40;93.30;;;;;;5091895;28;20509;-36
2022/04/17 06:22:37;;;;;;;8.07;3.80;;;9.40;93.10;;;;;;5090217;28;20023;-37
2022/04/17 06:25:05;;;;;;;5.18;3.80;;;9.40;92.70;;;;;;5087407;28;20043;-39
2022/04/17 06:27:42;;;;;;;3.90;2.80;;;9.50;93.50;;;;;;5087096;28;20027;-38
2022/04/17 06:30:09;;;;;;;5.45;3.92;;;9.50;93.80;;;;;;5078142;28;20029;-37
2022/04/17 06:32:35;;;;;;;5.95;3.67;;;9.60;93.60;;;;;;5087810;28;20082;-37
2022/04/17 06:35:01;;;;;;;5.07;3.42;;;9.70;93.20;;;;;;5081199;28;20028;-37
2022/04/17 06:37:26;;;;;;;7.93;4.43;;;9.70;93.60;;;;;;5091249;28;20024;-37
2022/04/17 06:39:52;;;;;;;3.83;3.40;;;9.80;93.70;;;;;;5087524;28;20033;-36
2022/04/17 06:42:17;;;;;;;4.30;3.15;;;9.90;93.00;;;;;;5091214;28;20024;-36
2022/04/17 06:44:43;;;;;;;6.13;4.10;;;9.90;93.50;;;;;;5087221;28;20021;-37
2022/04/17 06:47:08;;;;;;;6.43;3.72;;;10.00;93.00;;;;;;5081027;28;20025;-37
2022/04/17 06:49:34;;;;;;;6.05;3.95;;;10.00;92.80;;;;;;5078685;28;20058;-36
2022/04/17 06:51:59;;;;;;;6.25;3.80;;;10.00;93.40;;;;;;5081239;28;20029;-36
2022/04/17 06:54:25;;;;;;;6.40;3.83;;;10.10;93.10;;;;;;5088795;28;20081;-37
2022/04/17 06:56:50;;;;;;;6.07;3.78;;;10.20;93.60;;;;;;5088788;28;20043;-34
2022/04/17 06:59:16;;;;;;;4.80;3.55;;;10.40;93.10;;;;;;5089268;28;20576;-36
2022/04/17 07:01:43;;;;;;;6.25;3.60;;;10.40;93.00;;;;;;5090019;28;20389;-47
2022/04/17 07:04:08;;;;;;;7.55;3.55;;;10.50;92.90;;;;;;5089352;28;20479;-47
2022/04/17 07:06:34;;;;;;;4.40;3.70;;;10.50;93.30;;;;;;5091084;28;20024;-36
2022/04/17 07:08:59;;;;;;;8.55;3.88;;;10.60;92.70;;;;;;5091314;28;20032;-37
2022/04/17 07:11:25;;;;;;;3.67;2.88;;;10.60;93.30;;;;;;5091736;28;20020;-38
2022/04/17 07:13:51;;;;;;;4.57;3.65;;;10.70;93.80;;;;;;5089051;28;20560;-38
2022/04/17 07:16:16;;;;;;;7.88;3.45;;;10.90;92.80;;;;;;5086781;28;20028;-37
2022/04/17 07:18:42;;;;;;;5.10;3.80;;;11.00;92.50;;;;;;5073761;28;20055;-37
2022/04/17 07:21:08;;;;;;;7.13;3.20;;;11.00;92.40;;;;;;5086278;28;20081;-39
2022/04/17 07:23:34;;;;;;;5.97;3.17;;;10.90;92.70;;;;;;5091651;28;20032;-39
2022/04/17 07:26:02;;;;;;;6.13;3.30;;;10.90;92.70;;;;;;5087413;28;20035;-38
2022/04/17 07:28:27;;;;;;;6.93;4.05;;;11.00;93.00;;;;;;5090630;28;20499;-39
2022/04/17 07:30:53;;;;;;;4.70;3.33;;;11.10;92.90;;;;;;5089156;28;20032;-36
2022/04/17 07:33:19;;;;;;;4.03;3.60;;;11.30;92.90;;;;;;5092582;28;20017;-36
2022/04/17 07:35:44;;;;;;;5.53;3.22;;;11.30;92.80;;;;;;5089610;28;20035;-37
2022/04/17 07:38:10;;;;;;;5.50;3.75;;;11.40;92.30;;;;;;5088363;28;20483;-38
2022/04/17 07:40:36;;;;;;;6.35;3.38;;;11.40;93.10;;;;;;5091065;28;20039;-38
2022/04/17 07:43:04;;;;;;;5.13;3.03;;;11.50;93.50;;;;;;5091991;28;20020;-39
2022/04/17 07:45:31;;;;;;;6.20;3.47;;;11.70;93.00;;;;;;5091659;28;20035;-38
2022/04/17 07:47:57;;;;;;;4.88;3.47;;;11.90;92.80;;;;;;5090543;28;20020;-42
2022/04/17 07:50:25;;;;;;;4.60;3.47;;;12.00;92.20;;;;;;5091285;28;20024;-38
2022/04/17 07:52:53;;;;;;;9.55;4.07;;;12.10;92.40;;;;;;5093752;28;20024;-38
2022/04/17 07:55:19;;;;;;;3.85;2.95;;;12.10;92.70;;;;;;5095316;28;20066;-32
2022/04/17 08:00:57;;;;;;;6.40;4.05;;;12.40;92.10;;;;;;5059328;28;20060;-38
2022/04/17 08:03:34;;;;;;;4.57;3.20;;;12.50;92.10;;;;;;5093966;28;20074;-44
2022/04/17 08:06:07;;;;;;;4.82;2.90;;;12.60;91.70;;;;;;5093265;28;20024;-37
2022/04/17 08:08:33;;;;;;;5.35;3.30;;;12.70;91.60;;;;;;5090017;28;20129;-40
2022/04/17 08:10:59;;;;;;;7.80;3.97;;;12.80;91.30;;;;;;5086410;28;20473;-38
2022/04/17 08:13:24;;;;;;;7.30;3.15;;;12.80;91.10;;;;;;5092675;28;20081;-38
2022/04/17 08:15:50;;;;;;;4.53;3.10;;;12.90;91.80;;;;;;5089908;28;20388;-43
2022/04/17 08:18:16;;;;;;;4.68;3.10;;;13.00;92.00;;;;;;5087379;28;20043;-39
2022/04/17 08:20:43;;;;;;;3.35;2.72;;;13.10;91.20;;;;;;5095363;28;20032;-39
2022/04/17 08:23:09;;;;;;;3.42;2.80;;;13.20;92.20;;;;;;5095276;28;20101;-37
2022/04/17 08:25:35;;;;;;;6.70;3.92;;;13.20;91.00;;;;;;5090735;28;20020;-36
2022/04/17 08:28:02;;;;;;;3.97;2.97;;;13.20;91.20;;;;;;5086421;28;20024;-36
2022/04/17 08:30:30;;;;;;;5.38;3.25;;;13.20;91.30;;;;;;5088263;28;20672;-36
2022/04/17 08:32:57;;;;;;;5.20;3.60;;;13.20;91.30;;;;;;5087893;28;20016;-38
2022/04/17 08:35:22;;;;;;;3.42;3.13;;;13.30;91.20;;;;;;5086987;28;20028;-37
2022/04/17 08:37:49;;;;;;;11.25;3.38;;;13.40;90.80;;;;;;5091193;28;20105;-39
2022/04/17 08:40:15;;;;;;;6.22;3.95;;;13.40;90.70;;;;;;5088393;28;20536;-35
2022/04/17 08:42:42;;;;;;;4.18;3.28;;;13.40;91.00;;;;;;5086913;28;20024;-38
2022/04/17 08:45:11;;;;;;;6.63;4.35;;;13.40;91.80;;;;;;5087260;28;20020;-38
2022/04/17 08:47:39;;;;;;;4.75;2.83;;;13.60;91.10;;;;;;5088028;28;20028;-36
2022/04/17 08:50:13;;;;;;;6.93;3.35;;;13.70;90.60;;;;;;5087166;28;20036;-38
2022/04/17 08:52:39;;;;;;;4.28;3.25;;;13.90;91.50;;;;;;5087817;28;20541;-37
2022/04/17 08:55:07;;;;;;;5.25;3.65;;;14.10;91.70;;;;;;5084883;28;20032;-38
2022/04/17 08:57:32;;;;;;;5.18;3.60;;;14.30;90.90;;;;;;5085947;28;20017;-47
2022/04/17 08:59:58;;;;;;;4.13;3.35;;;14.40;91.20;;;;;;5088101;28;20034;-36
2022/04/17 09:02:24;;;;;;;8.02;3.80;;;14.60;91.20;;;;;;5088478;28;20025;-37
2022/04/17 09:04:50;;;;;;;3.92;3.05;;;14.70;91.00;;;;;;5088929;28;20111;-38
2022/04/17 09:07:15;;;;;;;6.40;3.42;;;14.90;90.90;;;;;;5092897;28;20081;-38
2022/04/17 09:09:52;;;;;;;5.00;3.22;;;15.20;90.10;;;;;;5090037;28;20028;-37
2022/04/17 09:12:22;;;;;;;8.60;4.00;;;15.30;90.90;;;;;;5088724;28;20453;-37
2022/04/17 09:14:48;;;;;;;6.35;3.15;;;15.30;90.90;;;;;;5092718;28;20028;-39
2022/04/17 09:17:15;;;;;;;6.57;3.65;;;15.50;90.60;;;;;;5092258;28;20039;-37
2022/04/17 09:19:41;;;;;;;4.77;2.93;;;15.70;89.60;;;;;;5090827;28;20085;-38
2022/04/17 09:22:08;;;;;;;3.45;3.05;;;15.80;89.90;;;;;;5092336;28;20024;-38
2022/04/17 09:24:39;;;;;;;4.25;3.58;;;16.00;90.30;;;;;;5091495;28;20032;-38
2022/04/17 09:27:06;;;;;;;5.32;3.58;;;16.30;89.50;;;;;;5090870;28;20136;-36
2022/04/17 09:29:34;;;;;;;3.30;3.00;;;16.60;88.40;;;;;;5093156;28;20040;-46
2022/04/17 09:32:00;;;;;;;;;;;16.80;87.70;;;;;;5091581;28;20035;-38
2022/04/17 09:34:27;;;;;;;6.97;3.42;;;16.90;87.30;;;;;;5089371;28;20257;-37
2022/04/17 09:37:00;;;;;;;4.80;3.13;;;17.00;88.70;;;;;;5090667;28;20028;-37
2022/04/17 09:39:35;;;;;;;3.95;3.55;;;17.00;87.20;;;;;;5092742;28;20024;-34
2022/04/17 09:42:02;;;;;;;4.57;3.38;;;17.20;86.60;;;;;;5074952;28;20494;-39
2022/04/17 09:44:37;;;;;;;7.75;3.40;;;17.30;87.30;;;;;;5090323;28;20027;-37
2022/04/17 09:47:04;;;;;;;5.97;3.75;;;17.70;84.70;;;;;;5092576;28;20036;-39
2022/04/17 09:49:30;;;;;;;5.78;3.00;;;17.70;84.20;;;;;;5092837;28;20035;-38
2022/04/17 09:52:09;;;;;;;4.88;3.30;;;17.60;83.20;;;;;;5091217;28;20480;-37
2022/04/17 09:54:35;;;;;;;5.22;2.90;;;17.60;83.50;;;;;;5093117;28;20495;-38
2022/04/17 09:57:01;;;;;;;8.38;2.60;;;17.90;84.50;;;;;;5090969;28;20024;-45
2022/04/17 09:59:27;;;;;;;3.22;2.38;;;18.10;85.90;;;;;;5090603;28;20028;-47
2022/04/17 10:01:57;;;;;;;2.80;2.60;;;18.40;82.50;;;;;;5091772;28;20507;-39
2022/04/17 10:04:24;;;;;;;4.18;2.92;;;18.50;82.50;;;;;;5090041;28;20161;-37
2022/04/17 10:06:55;;;;;;;4.20;2.60;;;18.50;82.10;;;;;;5092992;28;20032;-38
2022/04/17 10:09:21;;;;;;;4.25;3.30;;;18.40;83.10;;;;;;5091215;28;20051;-37
2022/04/17 10:11:51;;;;;;;4.50;2.70;;;18.60;82.10;;;;;;5089983;28;20035;-38
2022/04/17 10:14:18;;;;;;;3.17;2.88;;;18.60;82.60;;;;;;5086203;28;20020;-43
2022/04/17 10:16:46;;;;;;;3.72;2.95;;;18.50;81.70;;;;;;5090811;28;20495;-37
2022/04/17 10:19:17;;;;;;;5.35;3.00;;;18.40;82.10;;;;;;5089262;28;20016;-39
2022/04/17 10:21:46;;;;;;;4.63;2.85;;;18.80;83.10;;;;;;5084802;28;20028;-35
2022/04/17 10:24:14;;;;;;;3.47;2.72;;;18.90;82.00;;;;;;5086120;28;20024;-43
2022/04/17 10:26:45;;;;;;;4.50;3.25;;;18.90;80.30;;;;;;5091219;28;20510;-38
2022/04/17 10:29:33;;;;;;;4.97;3.20;;;19.10;79.50;;;;;;5088500;28;20180;-36
2022/04/17 10:32:28;;;;;;;4.22;2.92;;;19.00;81.00;;;;;;5090722;28;20021;-39
2022/04/17 10:35:24;;;;;;;4.82;2.95;;;18.90;79.90;;;;;;5089241;28;20048;-38
2022/04/17 10:37:52;;;;;;;4.40;3.45;;;19.00;80.80;;;;;;5092242;28;20438;-39
2022/04/17 10:40:18;;;;;;;4.60;3.72;;;19.10;79.30;;;;;;5088460;28;20028;-38
2022/04/17 10:43:00;;;;;;;4.53;3.38;;;18.80;80.60;;;;;;5090813;28;20024;-38
2022/04/17 10:45:31;;;;;;;3.65;2.92;;;18.70;81.00;;;;;;5091307;28;20032;-37
2022/04/17 10:48:05;;;;;;;4.93;3.20;;;18.60;82.60;;;;;;5090487;28;20085;-38
2022/04/17 10:50:40;;;;;;;4.10;2.90;;;18.60;82.20;;;;;;5092659;28;20101;-38
2022/04/17 10:53:29;;;;;;;5.03;2.85;;;18.70;80.50;;;;;;5091483;28;20025;-38
2022/04/17 10:56:06;;;;;;;4.75;3.90;;;18.60;81.80;;;;;;5085426;28;20510;-38
2022/04/17 10:58:50;;;;;;;5.15;3.53;;;18.30;80.10;;;;;;5088271;28;20037;-36
2022/04/17 11:01:16;;;;;;;4.30;3.80;;;18.20;80.30;;;;;;5082941;28;20516;-36
2022/04/17 11:03:54;;;;;;;6.38;3.03;;;18.30;80.60;;;;;;5089132;28;20107;-38
2022/04/17 11:06:30;;;;;;;4.45;3.40;;;18.30;84.00;;;;;;5089544;28;21764;-34
2022/04/17 11:09:12;;;;;;;3.28;2.97;;;18.50;83.10;;;;;;5083957;28;20024;-37
2022/04/17 11:11:39;;;;;;;5.15;3.15;;;18.70;82.70;;;;;;5080050;28;20054;-39
2022/04/17 11:14:11;;;;;;;6.82;2.63;;;18.80;83.60;;;;;;5092353;28;20503;-38
2022/04/17 11:16:53;;;;;;;6.65;5.10;;;19.00;81.60;;;;;;5093108;28;20429;-38
2022/04/17 11:19:28;;;;;;;4.60;3.08;;;19.10;80.20;;;;;;5091277;28;20503;-38
2022/04/17 11:22:00;;;;;;;7.57;3.80;;;19.00;81.00;;;;;;5091772;28;20086;-36
2022/04/17 11:24:27;;;;;;;5.32;3.20;;;18.90;80.50;;;;;;5091740;28;20017;-38
2022/04/17 11:26:53;;;;;;;8.15;3.45;;;18.90;80.30;;;;;;5096632;28;20027;-43
2022/04/17 11:29:39;;;;;;;6.57;3.20;;;18.60;81.50;;;;;;5096546;28;20069;-39
2022/04/17 11:32:17;;;;;;;7.27;3.67;;;18.60;83.60;;;;;;5093235;28;20406;-39
2022/04/17 11:34:53;;;;;;;3.08;2.80;;;18.70;83.60;;;;;;5096445;28;20353;-38
2022/04/17 11:37:19;;;;;;;3.10;2.80;;;18.90;81.60;;;;;;5094028;28;20056;-37
2022/04/17 11:39:46;;;;;;;10.18;3.00;;;18.80;82.50;;;;;;5094007;28;20043;-37
2022/04/17 11:42:12;;;;;;;5.72;3.03;;;18.90;82.80;;;;;;5092586;28;20035;-46
2022/04/17 11:44:41;;;;;;;3.45;2.65;;;19.20;80.10;;;;;;5094773;28;20488;-37
2022/04/17 11:47:10;;;;;;;3.30;2.50;;;19.10;78.10;;;;;;5088737;28;20024;-37
2022/04/17 11:49:39;;;;;;;2.88;2.55;;;18.90;76.20;;;;;;5092828;28;20020;-39
2022/04/17 11:52:14;;;;;;;3.75;2.60;;;18.80;78.50;;;;;;5093559;28;20430;-39
2022/04/17 11:54:41;;;;;;;6.43;2.60;;;18.90;79.40;;;;;;5092745;28;20047;-38
2022/04/17 11:57:07;;;;;;;2.50;2.30;;;19.00;77.60;;;;;;5091549;28;20036;-34
2022/04/17 11:59:47;;;;;;;2.65;1.90;;;19.10;78.80;;;;;;5092838;28;20039;-37
2022/04/17 12:02:16;;;;;;;2.50;2.30;;;19.10;76.20;;;;;;5095576;28;20024;-38
2022/04/17 12:04:43;;;;;;;2.53;1.88;;;19.10;74.50;;;;;;5095707;28;20028;-37
2022/04/17 12:07:13;;;;;;;8.98;2.50;;;19.10;76.70;;;;;;5094141;28;20106;-39
2022/04/17 12:09:40;;;;;;;3.00;2.35;;;19.20;77.20;;;;;;5092579;28;20107;-39
2022/04/17 12:12:16;;;;;;;4.53;2.47;;;19.40;77.00;;;;;;5093865;28;20447;-41
2022/04/17 12:14:42;;;;;;;7.90;2.47;;;19.50;76.80;;;;;;5096080;28;20081;-38
2022/04/17 12:17:08;;;;;;;2.30;2.10;;;19.60;75.50;;;;;;5091921;28;20039;-39
2022/04/17 12:19:34;;;;;;;3.50;2.08;;;19.60;75.50;;;;;;5089999;28;20098;-39
2022/04/17 12:22:05;;;;;;;4.45;2.00;;;19.70;77.50;;;;;;5094428;28;20150;-39
2022/04/17 12:24:31;;;;;;;6.03;2.63;;;19.80;78.30;;;;;;5093731;28;20472;-39
2022/04/17 12:26:57;;;;;;;3.92;3.20;;;19.90;75.90;;;;;;5090279;28;20019;-39
2022/04/17 12:29:23;;;;;;;2.78;2.55;;;20.00;76.20;;;;;;5103597;28;20048;-39
2022/04/17 12:31:49;;;;;;;5.25;2.20;;;20.00;77.60;;;;;;5093625;28;20498;-39
2022/04/17 12:34:19;;;;;;;3.70;2.20;;;20.30;76.60;;;;;;5090839;28;20028;-39
2022/04/17 12:36:49;;;;;;;4.15;2.58;;;20.40;73.40;;;;;;5090187;28;20555;-38
2022/04/17 12:39:15;;;;;;;2.60;2.33;;;20.20;75.80;;;;;;5095442;28;20031;-38
2022/04/17 12:41:51;;;;;;;4.60;2.88;;;20.30;76.00;;;;;;5093785;28;20475;-39
2022/04/17 12:44:31;;;;;;;3.30;2.28;;;20.30;77.10;;;;;;5090798;28;20031;-40
2022/04/17 12:47:12;;;;;;;2.38;2.17;;;20.40;74.60;;;;;;5093785;28;20114;-37
2022/04/17 12:49:38;;;;;;;4.70;2.42;;;20.40;77.40;;;;;;5089953;28;20016;-38
2022/04/17 12:52:04;;;;;;;6.22;2.53;;;20.40;76.70;;;;;;5093320;28;20030;-39
2022/04/17 12:54:34;;;;;;;4.40;2.25;;;20.60;76.40;;;;;;5093610;28;20079;-37
2022/04/17 12:57:10;;;;;;;2.15;1.95;;;20.70;76.70;;;;;;5081483;28;20024;-38
2022/04/17 12:59:43;;;;;;;2.40;2.20;;;20.70;76.90;;;;;;5083454;28;20468;-39
2022/04/17 13:02:13;;;;;;;2.90;2.45;;;20.70;77.10;;;;;;5093469;28;20043;-42
2022/04/17 13:04:43;;;;;;;2.20;1.98;;;20.90;73.90;;;;;;5094875;28;20380;-40
2022/04/17 13:07:15;;;;;;;4.20;2.25;;;21.00;74.90;;;;;;5091881;28;20471;-38
2022/04/17 13:09:51;;;;;;;2.65;2.45;;;21.20;74.40;;;;;;5088684;28;20435;-38